Time;durP1;ratioP1;P1;durP2;ratioP2;P2;SDS_P1;SDS_P2;PMS_P1;PMS_P2;Temp;Humidity;BMP_temperature;BMP_pressure;BME280_temperature;BME280_humidity;BME280_pressure;Samples;Min_cycle;Max_cycle;Signal;HPM_P1;HPM_P2
2022/05/05 00:01:38;;;;;;;;;;;7.30;99.90;;;;;;5052477;28;19935;-67
2022/05/05 00:04:03;;;;;;;;;;;7.70;99.90;;;;;;5052669;28;20011;-67
2022/05/05 00:06:29;;;;;;;;;;;7.20;99.90;;;;;;5052757;28;19925;-68
2022/05/05 00:08:55;;;;;;;;;;;8.20;99.90;;;;;;5053501;28;19925;-68
2022/05/05 00:14:23;;;;;;;;;;;7.10;99.90;;;;;;5053566;28;19925;-68
2022/05/05 00:16:52;;;;;;;;;;;7.30;99.90;;;;;;5053689;28;19929;-67
2022/05/05 00:19:18;;;;;;;;;;;7.00;99.90;;;;;;5053533;28;19925;-68
2022/05/05 00:21:43;;;;;;;;;;;6.90;99.90;;;;;;5053608;28;19931;-69
2022/05/05 00:24:09;;;;;;;;;;;7.20;99.90;;;;;;5052643;28;19976;-68
2022/05/05 00:26:34;;;;;;;;;;;6.90;99.90;;;;;;5053396;28;19970;-70
2022/05/05 00:29:00;;;;;;;;;;;7.20;99.90;;;;;;5053452;28;20383;-67
2022/05/05 00:31:26;;;;;;;;;;;7.30;99.90;;;;;;5053566;28;20011;-68
2022/05/05 00:33:51;;;;;;;;;;;7.00;99.90;;;;;;5053475;28;20364;-67
2022/05/05 00:36:17;;;;;;;;;;;7.10;99.90;;;;;;5052570;28;19929;-69
2022/05/05 00:38:42;;;;;;;;;;;8.20;99.90;;;;;;5053454;28;19932;-70
2022/05/05 00:41:08;;;;;;;;;;;6.80;99.90;;;;;;5053336;28;19929;-68
2022/05/05 00:43:34;;;;;;;;;;;7.70;99.90;;;;;;5053127;28;19932;-70
2022/05/05 00:46:00;;;;;;;;;;;6.90;99.90;;;;;;5053400;28;19936;-70
2022/05/05 00:48:27;;;;;;;;;;;7.70;99.90;;;;;;5055123;28;19932;-68
2022/05/05 00:50:52;;;;;;;;;;;7.40;99.90;;;;;;5057357;28;19931;-67
2022/05/05 00:53:18;;;;;;;;;;;6.80;99.90;;;;;;5057237;28;20015;-68
2022/05/05 00:55:44;;;;;;;;;;;6.90;99.90;;;;;;5057150;28;19972;-68
2022/05/05 00:58:10;;;;;;;;;;;7.40;99.90;;;;;;5057106;28;19925;-67
2022/05/05 01:00:36;;;;;;;;;;;7.20;99.90;;;;;;5057282;28;19986;-68
2022/05/05 01:03:01;;;;;;;;;;;6.80;99.90;;;;;;5056254;28;19944;-70
2022/05/05 01:05:28;;;;;;;;;;;7.30;99.90;;;;;;5056004;28;19925;-68
2022/05/05 01:07:56;;;;;;;;;;;6.90;99.90;;;;;;5056965;28;19968;-68
2022/05/05 01:10:22;;;;;;;;;;;6.80;99.90;;;;;;5055664;28;19932;-68
2022/05/05 01:12:48;;;;;;;;;;;7.20;99.90;;;;;;5055906;28;19929;-68
2022/05/05 01:15:13;;;;;;;;;;;6.70;99.90;;;;;;5057010;28;19925;-67
2022/05/05 01:17:39;;;;;;;;;;;6.60;99.90;;;;;;5055763;28;20410;-68
2022/05/05 01:20:11;;;;;;;;;;;6.80;99.90;;;;;;5056668;28;19931;-67
2022/05/05 01:22:37;;;;;;;;;;;6.60;99.90;;;;;;5055736;28;20019;-68
2022/05/05 01:30:31;;;;;;;;;;;6.80;99.90;;;;;;5056557;28;19931;-67
2022/05/05 01:32:57;;;;;;;;;;;6.60;99.90;;;;;;5039039;28;20019;-68
2022/05/05 01:35:22;;;;;;;;;;;6.80;99.90;;;;;;5056397;28;19924;-68
2022/05/05 01:37:48;;;;;;;;;;;6.60;99.90;;;;;;5056370;28;19929;-67
2022/05/05 01:40:14;;;;;;;;;;;8.30;99.90;;;;;;5055094;28;19932;-68
2022/05/05 01:42:40;;;;;;;;;;;6.50;99.90;;;;;;5056413;28;19925;-67
2022/05/05 01:45:06;;;;;;;;;;;7.70;99.90;;;;;;5055500;28;20409;-68
2022/05/05 01:47:31;;;;;;;;;;;6.50;99.90;;;;;;5056148;28;19991;-68
2022/05/05 01:50:00;;;;;;;;;;;6.40;99.90;;;;;;5056225;28;19933;-68
2022/05/05 01:52:26;;;;;;;;;;;7.40;99.90;;;;;;5055207;28;20406;-70
2022/05/05 01:54:52;;;;;;;;;;;6.50;99.90;;;;;;5056411;28;20019;-67
2022/05/05 01:57:18;;;;;;;;;;;6.40;99.90;;;;;;5056230;28;19968;-68
2022/05/05 01:59:43;;;;;;;;;;;6.40;99.90;;;;;;5055130;28;20379;-67
2022/05/05 02:02:09;;;;;;;;;;;6.40;99.90;;;;;;5055077;28;20042;-70
2022/05/05 02:04:34;;;;;;;;;;;6.60;99.90;;;;;;5055899;28;19925;-67
2022/05/05 02:07:00;;;;;;;;;;;6.50;99.90;;;;;;5055748;28;20330;-67
2022/05/05 02:09:25;;;;;;;;;;;6.40;99.90;;;;;;5055497;28;19931;-67
2022/05/05 02:11:53;;;;;;;;;;;6.30;99.90;;;;;;5055621;28;20494;-67
2022/05/05 02:14:23;;;;;;;;;;;6.40;99.90;;;;;;5054859;28;20403;-68
2022/05/05 02:16:49;;;;;;;;;;;6.50;99.90;;;;;;5055701;28;19936;-68
2022/05/05 02:19:15;;;;;;;;;;;6.80;99.90;;;;;;5054573;28;19931;-67
2022/05/05 02:21:40;;;;;;;;;;;7.60;99.90;;;;;;5055594;28;20286;-71
2022/05/05 02:24:06;;;;;;;;;;;6.40;99.90;;;;;;5055735;28;19932;-68
2022/05/05 02:26:31;;;;;;;;;;;6.40;99.90;;;;;;5055334;28;19978;-67
2022/05/05 02:28:57;;;;;;;;;;;6.30;99.90;;;;;;5055576;28;19928;-68
2022/05/05 02:31:22;;;;;;;;;;;6.40;99.90;;;;;;5055446;28;20015;-68
2022/05/05 02:33:48;;;;;;;;;;;6.40;99.90;;;;;;5037636;28;19971;-69
2022/05/05 02:38:58;;;;;;;;;;;7.10;99.90;;;;;;5055190;28;19983;-70
2022/05/05 02:41:24;;;;;;;;;;;6.50;99.90;;;;;;5054180;28;20024;-67
2022/05/05 02:43:50;;;;;;;;;;;6.50;99.90;;;;;;5055214;28;19975;-67
2022/05/05 02:46:15;;;;;;;;;;;7.20;99.90;;;;;;5055107;28;19925;-70
2022/05/05 02:48:41;;;;;;;;;;;6.50;99.90;;;;;;5053832;28;19932;-68
2022/05/05 02:51:07;;;;;;;;;;;7.00;99.90;;;;;;5055018;28;20130;-68
2022/05/05 02:56:17;;;;;;;;;;;8.20;99.90;;;;;;5054085;28;19932;-68
2022/05/05 02:58:42;;;;;;;;;;;6.90;99.90;;;;;;5054908;28;19925;-67
2022/05/05 03:01:08;;;;;;;;;;;6.90;99.90;;;;;;5054877;28;19975;-68
2022/05/05 03:03:34;;;;;;;;;;;6.70;99.90;;;;;;5053803;28;19947;-68
2022/05/05 03:06:00;;;;;;;;;;;6.20;99.90;;;;;;5054591;28;20450;-70
2022/05/05 03:08:25;;;;;;;;;;;6.20;99.90;;;;;;5054529;28;19924;-68
2022/05/05 03:10:51;;;;;;;;;;;6.20;99.90;;;;;;5053094;28;19924;-70
2022/05/05 03:13:17;;;;;;;;;;;6.10;99.90;;;;;;5054716;28;19924;-70
2022/05/05 03:15:43;;;;;;;;;;;5.70;99.90;;;;;;5054606;28;19932;-68
2022/05/05 03:18:09;;;;;;;;;;;6.10;99.90;;;;;;5053575;28;19935;-70
2022/05/05 03:20:34;;;;;;;;;;;6.10;99.90;;;;;;5053638;28;19925;-67
2022/05/05 03:23:00;;;;;;;;;;;6.10;99.90;;;;;;5053340;28;19933;-68
2022/05/05 03:25:25;;;;;;;;;;;6.00;99.90;;;;;;5054625;28;20397;-67
2022/05/05 03:27:51;;;;;;;;;;;6.00;99.90;;;;;;5054377;28;20383;-70
2022/05/05 03:30:16;;;;;;;;;;;6.00;99.90;;;;;;5054307;28;19987;-67
2022/05/05 03:32:42;;;;;;;;;;;5.90;99.90;;;;;;5054362;28;20039;-68
2022/05/05 03:35:08;;;;;;;;;;;6.20;99.90;;;;;;5054533;28;20015;-67
2022/05/05 03:37:33;;;;;;;;;;;5.90;99.90;;;;;;5053132;28;19971;-68
2022/05/05 03:39:59;;;;;;;;;;;7.10;99.90;;;;;;5053979;28;19932;-68
2022/05/05 03:42:25;;;;;;;;;;;5.90;99.90;;;;;;5053270;28;19924;-69
2022/05/05 03:44:51;;;;;;;;;;;6.40;99.90;;;;;;5054196;28;19932;-68
2022/05/05 03:47:16;;;;;;;;;;;5.90;99.90;;;;;;5054060;28;19925;-68
2022/05/05 03:49:43;;;;;;;;;;;5.90;99.90;;;;;;5053869;28;20294;-69
2022/05/05 03:52:08;;;;;;;;;;;7.00;99.90;;;;;;5053924;28;19933;-67
2022/05/05 03:54:34;;;;;;;;;;;6.30;99.90;;;;;;5054071;28;19925;-67
2022/05/05 03:56:59;;;;;;;;;;;6.80;99.90;;;;;;5053981;28;19974;-67
2022/05/05 03:59:25;;;;;;;;;;;6.80;99.90;;;;;;5052987;28;19971;-69
2022/05/05 04:01:51;;;;;;;;;;;5.60;99.90;;;;;;5053975;28;19999;-69
2022/05/05 04:04:17;;;;;;;;;;;5.60;99.90;;;;;;5052726;28;19931;-67
2022/05/05 04:06:42;;;;;;;;;;;5.60;99.90;;;;;;5053606;28;19924;-68
2022/05/05 04:09:10;;;;;;;;;;;6.40;99.90;;;;;;5053626;28;19929;-67
2022/05/05 04:11:36;;;;;;;;;;;5.70;99.90;;;;;;5053476;28;19949;-70
2022/05/05 04:14:03;;;;;;;;;;;5.70;99.90;;;;;;5053683;28;20398;-69
2022/05/05 04:16:31;;;;;;;;;;;5.60;99.90;;;;;;5052747;28;19933;-66
2022/05/05 04:18:56;;;;;;;;;;;5.60;99.90;;;;;;5053487;28;19925;-67
2022/05/05 04:21:22;;;;;;;;;;;5.60;99.90;;;;;;5051971;28;19932;-68
2022/05/05 04:23:48;;;;;;;;;;;7.00;99.90;;;;;;5053379;28;19928;-69
2022/05/05 04:26:14;;;;;;;;;;;6.50;99.90;;;;;;5053313;28;20023;-66
2022/05/05 04:28:43;;;;;;;;;;;5.60;99.90;;;;;;5052707;28;19932;-70
2022/05/05 04:31:10;;;;;;;;;;;6.30;99.90;;;;;;5053540;28;20023;-69
2022/05/05 04:33:36;;;;;;;;;;;5.70;99.90;;;;;;5053554;28;19925;-67
2022/05/05 04:36:02;;;;;;;;;;;6.50;99.90;;;;;;5053346;28;19932;-68
2022/05/05 04:38:28;;;;;;;;;;;5.70;99.90;;;;;;5053495;28;19928;-67
2022/05/05 04:40:53;;;;;;;;;;;6.70;99.90;;;;;;5052272;28;19932;-67
2022/05/05 04:43:19;;;;;;;;;;;5.80;99.90;;;;;;5052489;28;19986;-70
2022/05/05 04:45:45;;;;;;;;;;;6.60;99.90;;;;;;5053379;28;19925;-68
2022/05/05 04:48:10;;;;;;;;;;;5.70;99.90;;;;;;5053335;28;19925;-68
2022/05/05 04:50:36;;;;;;;;;;;5.70;99.90;;;;;;5053353;28;19929;-69
2022/05/05 04:53:01;;;;;;;;;;;7.10;99.90;;;;;;5053269;28;20272;-70
2022/05/05 04:55:27;;;;;;;;;;;6.10;99.90;;;;;;5053254;28;19925;-68
2022/05/05 04:57:52;;;;;;;;;;;5.90;99.90;;;;;;5053116;28;20403;-68
2022/05/05 05:00:18;;;;;;;;;;;6.50;99.90;;;;;;5052415;28;20279;-67
2022/05/05 05:02:43;;;;;;;;;;;5.90;99.90;;;;;;5085846;28;19976;-66
2022/05/05 05:05:09;;;;;;;;;;;7.10;99.90;;;;;;5052174;28;19931;-67
2022/05/05 05:07:35;;;;;;;;;;;6.00;99.90;;;;;;5053062;28;19925;-70
2022/05/05 05:10:00;;;;;;;;;;;6.00;99.90;;;;;;5052180;28;20320;-68
2022/05/05 05:12:26;;;;;;;;;;;6.10;99.90;;;;;;5052772;28;19925;-67
2022/05/05 05:14:52;;;;;;;;;;;6.20;99.90;;;;;;5053195;28;19925;-68
2022/05/05 05:17:17;;;;;;;;;;;6.20;99.90;;;;;;5053217;28;20435;-70
2022/05/05 05:19:43;;;;;;;;;;;7.40;99.90;;;;;;5052994;28;20304;-70
2022/05/05 05:22:08;;;;;;;;;;;6.90;99.90;;;;;;5052150;28;20023;-70
2022/05/05 05:24:34;;;;;;;;;;;6.30;99.90;;;;;;5052875;28;20269;-69
2022/05/05 05:26:59;;;;;;;;;;;6.40;99.90;;;;;;5052756;28;19983;-68
2022/05/05 05:29:25;;;;;;;;;;;7.00;99.90;;;;;;5053053;28;19925;-67
2022/05/05 05:31:50;;;;;;;;;;;6.50;99.90;;;;;;5053133;28;19977;-70
2022/05/05 05:34:16;;;;;;;;;;;6.90;99.90;;;;;;5053886;28;20035;-69
2022/05/05 05:36:41;;;;;;;;;;;6.60;99.90;;;;;;5055539;28;19932;-69
2022/05/05 05:39:07;;;;;;;;;;;6.60;99.90;;;;;;5056527;28;19925;-67
2022/05/05 05:41:33;;;;;;;;;;;6.60;99.90;;;;;;5056390;28;19924;-67
2022/05/05 05:43:58;;;;;;;;;;;7.20;99.90;;;;;;5056287;28;20417;-67
2022/05/05 05:46:24;;;;;;;;;;;6.70;99.90;;;;;;5055302;28;20004;-68
2022/05/05 05:48:49;;;;;;;;;;;7.40;99.90;;;;;;5056285;28;20299;-69
2022/05/05 05:51:15;;;;;;;;;;;6.80;99.90;;;;;;5055072;28;19925;-69
2022/05/05 05:53:40;;;;;;;;;;;8.00;99.90;;;;;;5056291;28;19947;-67
2022/05/05 05:56:06;;;;;;;;;;;7.70;99.90;;;;;;5056053;28;20038;-70
2022/05/05 05:58:31;;;;;;;;;;;8.10;99.90;;;;;;5055906;28;19925;-68
2022/05/05 06:00:57;;;;;;;;;;;7.00;99.90;;;;;;5056176;28;19991;-67
2022/05/05 06:06:07;;;;;;;;;;;7.20;99.90;;;;;;5055833;28;19970;-67
2022/05/05 06:08:32;;;;;;;;;;;8.30;99.90;;;;;;5055788;28;19924;-67
2022/05/05 06:10:58;;;;;;;;;;;7.30;99.90;;;;;;5055675;28;19929;-70
2022/05/05 06:13:24;;;;;;;;;;;7.30;99.90;;;;;;5055540;28;19924;-70
2022/05/05 06:15:50;;;;;;;;;;;7.40;99.90;;;;;;5056002;28;19987;-67
2022/05/05 06:18:15;;;;;;;;;;;7.50;99.90;;;;;;5055702;28;19925;-70
2022/05/05 06:20:41;;;;;;;;;;;8.30;99.90;;;;;;5054571;28;20034;-68
2022/05/05 06:23:06;;;;;;;;;;;7.60;99.90;;;;;;5055555;28;19974;-68
2022/05/05 06:25:32;;;;;;;;;;;7.60;99.90;;;;;;5055478;28;20025;-68
2022/05/05 06:27:58;;;;;;;;;;;9.40;99.90;;;;;;5054081;28;20021;-68
2022/05/05 06:30:23;;;;;;;;;;;9.00;99.90;;;;;;5054138;28;19925;-70
2022/05/05 06:32:49;;;;;;;;;;;8.80;99.90;;;;;;5053940;28;19924;-69
2022/05/05 06:35:14;;;;;;;;;;;8.90;99.90;;;;;;5054615;28;19929;-67
2022/05/05 06:37:40;;;;;;;;;;;7.90;99.90;;;;;;5054948;28;19925;-69
2022/05/05 06:40:06;;;;;;;;;;;8.00;99.90;;;;;;5054974;28;19931;-69
2022/05/05 06:42:32;;;;;;;;;;;8.00;99.90;;;;;;5053983;28;20300;-67
2022/05/05 06:44:58;;;;;;;;;;;8.10;99.90;;;;;;5053255;28;20068;-68
2022/05/05 06:47:24;;;;;;;;;;;8.10;99.90;;;;;;5037165;28;19924;-67
2022/05/05 06:49:50;;;;;;;;;;;8.20;99.90;;;;;;5053874;28;19925;-68
2022/05/05 06:52:16;;;;;;;;;;;9.70;99.90;;;;;;5054906;28;20008;-67
2022/05/05 06:54:41;;;;;;;;;;;8.50;99.90;;;;;;5054750;28;19929;-67
2022/05/05 06:57:07;;;;;;;;;;;9.20;99.90;;;;;;5054585;28;20015;-67
2022/05/05 06:59:32;;;;;;;;;;;8.40;99.90;;;;;;5054436;28;20007;-70
2022/05/05 07:02:04;;;;;;;;;;;8.50;99.90;;;;;;5053526;28;19944;-68
2022/05/05 07:07:17;;;;;;;;;;;8.60;99.90;;;;;;5054324;28;20444;-67
2022/05/05 07:12:28;;;;;;;;;;;9.50;99.90;;;;;;5054446;28;19968;-68
2022/05/05 07:14:55;;;;;;;;;;;8.80;99.90;;;;;;5054421;28;19925;-68
2022/05/05 07:17:20;;;;;;;;;;;8.80;99.90;;;;;;5053450;28;19925;-70
2022/05/05 07:19:46;;;;;;;;;;;8.80;99.90;;;;;;5054156;28;19935;-71
2022/05/05 07:22:12;;;;;;;;;;;8.90;99.90;;;;;;5054175;28;19925;-68
2022/05/05 07:24:37;;;;;;;;;;;9.00;99.90;;;;;;5054443;28;20328;-70
2022/05/05 07:27:03;;;;;;;;;;;9.40;99.90;;;;;;5054406;28;20409;-71
2022/05/05 07:29:29;;;;;;;;;;;9.10;99.90;;;;;;5054203;28;19932;-67
2022/05/05 07:31:56;;;;;;;;;;;9.10;99.90;;;;;;5053958;28;20283;-67
2022/05/05 07:34:34;;;;;;;;;;;9.20;99.90;;;;;;5036331;28;19924;-68
2022/05/05 07:37:03;;;;;;;;;;;9.20;99.90;;;;;;5053882;28;19928;-68
2022/05/05 07:39:28;;;;;;;;;;;9.80;99.90;;;;;;5053841;28;20044;-67
2022/05/05 07:41:54;;;;;;;;;;;9.30;99.90;;;;;;5054065;28;19956;-71
2022/05/05 07:44:20;;;;;;;;;;;9.40;99.90;;;;;;5053965;28;19935;-70
2022/05/05 07:46:45;;;;;;;;;;;9.40;99.90;;;;;;5053916;28;19975;-69
2022/05/05 07:49:11;;;;;;;;;;;9.50;99.90;;;;;;5053770;28;19947;-67
2022/05/05 07:51:37;;;;;;;;;;;9.90;99.90;;;;;;5052628;28;19925;-67
2022/05/05 07:56:46;;;;;;;;;;;9.70;99.90;;;;;;5052052;28;19924;-69
2022/05/05 07:59:12;;;;;;;;;;;9.90;99.90;;;;;;5053676;28;20008;-69
2022/05/05 08:01:38;;;;;;;;;;;10.00;99.90;;;;;;5053629;28;20575;-68
2022/05/05 08:04:04;;;;;;;;;;;9.90;99.90;;;;;;5053458;28;19925;-68
2022/05/05 08:06:30;;;;;;;;;;;9.90;99.90;;;;;;5052240;28;20368;-67
2022/05/05 08:08:56;;;;;;;;;;;10.00;99.90;;;;;;5053614;28;19932;-71
2022/05/05 08:11:22;;;;;;;;;;;10.10;99.90;;;;;;5053503;28;19925;-67
2022/05/05 08:13:47;;;;;;;;;;;10.10;99.90;;;;;;5053551;28;20011;-68
2022/05/05 08:16:13;;;;;;;;;;;10.20;99.90;;;;;;5053374;28;19924;-67
2022/05/05 08:18:39;;;;;;;;;;;10.20;99.90;;;;;;5053430;28;19929;-68
2022/05/05 08:21:06;;;;;;;;;;;10.30;99.90;;;;;;5053253;28;19925;-68
2022/05/05 08:23:33;;;;;;;;;;;10.40;99.90;;;;;;5053333;28;19925;-69
2022/05/05 08:28:42;;;;;;;;;;;10.50;99.90;;;;;;5053194;28;20384;-68
2022/05/05 08:31:10;;;;;;;;;;;10.60;99.90;;;;;;5053232;28;19929;-67
2022/05/05 08:33:36;;;;;;;;;;;10.60;99.90;;;;;;5052365;28;19925;-67
2022/05/05 08:36:02;;;;;;;;;;;10.70;99.90;;;;;;5053020;28;19925;-68
2022/05/05 08:38:27;;;;;;;;;;;10.70;99.90;;;;;;5053402;28;19980;-68
2022/05/05 08:40:54;;;;;;;;;;;10.80;99.90;;;;;;5053495;28;19987;-71
2022/05/05 08:43:19;;;;;;;;;;;10.80;99.90;;;;;;5053156;28;19994;-69
2022/05/05 08:45:47;;;;;;;;;;;10.90;99.90;;;;;;5053242;28;20384;-69
2022/05/05 08:48:13;;;;;;;;;;;11.00;99.90;;;;;;5053110;28;19925;-69
2022/05/05 08:50:40;;;;;;;;;;;11.00;99.90;;;;;;5051685;28;20019;-68
2022/05/05 08:53:07;;;;;;;;;;;11.10;99.90;;;;;;5051903;28;19979;-68
2022/05/05 08:55:34;;;;;;;;;;;11.10;99.90;;;;;;5052196;28;19972;-71
2022/05/05 08:58:00;;;;;;;;;;;11.20;99.90;;;;;;5052964;28;20530;-67
2022/05/05 09:00:27;;;;;;;;;;;11.30;99.90;;;;;;5053008;28;19925;-68
2022/05/05 09:02:56;;;;;;;;;;;11.90;99.90;;;;;;5052907;28;19925;-68
2022/05/05 09:05:40;;;;;;;;;;;11.50;99.90;;;;;;5051816;28;19924;-67
2022/05/05 09:08:06;;;;;;;;;;;11.50;99.90;;;;;;5053634;28;19925;-66
2022/05/05 09:10:41;;;;;;;;;;;11.60;99.90;;;;;;5056762;28;19924;-70
2022/05/05 09:13:06;;;;;;;;;;;11.70;99.90;;;;;;5056537;28;19932;-67
2022/05/05 09:15:33;;;;;;;;;;;11.70;99.90;;;;;;5055338;28;19925;-68
2022/05/05 09:18:17;;;;;;;;;;;11.30;99.90;;;;;;5056567;28;19935;-70
2022/05/05 09:20:44;;;;;;;;;;;11.90;99.90;;;;;;5056568;28;20007;-67
2022/05/05 09:23:12;;;;;;;;;;;12.00;99.90;;;;;;5055415;28;19924;-68
2022/05/05 09:25:47;;;;;;;;;;;12.10;99.90;;;;;;5056627;28;20367;-67
2022/05/05 09:28:20;;;;;;;;;;;12.20;99.90;;;;;;5055011;28;19925;-68
2022/05/05 09:30:47;;;;;;;;;;;12.20;99.90;;;;;;5056253;28;20019;-68
2022/05/05 09:33:17;;;;;;;;;;;12.30;99.90;;;;;;5056511;28;19970;-68
2022/05/05 09:35:43;;;;;;;;;;;12.40;99.90;;;;;;5055017;28;20376;-68
2022/05/05 09:38:09;;;;;;;;;;;12.40;99.90;;;;;;5056314;28;19928;-68
2022/05/05 09:40:34;;;;;;;;;;;12.50;99.90;;;;;;5056178;28;20296;-67
2022/05/05 09:43:01;;;;;;;;;;;12.60;99.90;;;;;;5056140;28;19975;-71
2022/05/05 09:45:33;;;;;;;;;;;12.60;99.90;;;;;;5055961;28;20410;-68
2022/05/05 09:48:02;;;;;;;;;;;12.70;99.90;;;;;;5056143;28;20302;-67
2022/05/05 09:50:29;;;;;;;;;;;12.80;99.90;;;;;;5056102;28;19924;-68
2022/05/05 09:58:28;;;;;;;;;;;13.00;99.90;;;;;;5055895;28;19951;-68
2022/05/05 10:01:04;;;;;;;;;;;13.10;99.90;;;;;;5055946;28;20388;-68
2022/05/05 10:06:21;;;;;;;;;;;13.20;99.90;;;;;;5055333;28;19931;-70
2022/05/05 10:08:49;;;;;;;;;;;13.20;99.90;;;;;;5055506;28;20379;-67
2022/05/05 10:11:15;;;;;;;;;;;13.30;99.90;;;;;;5055580;28;19925;-68
2022/05/05 10:13:41;;;;;;;;;;;13.40;99.90;;;;;;5055554;28;19931;-68
2022/05/05 10:16:07;;;;;;;;;;;13.50;99.90;;;;;;5055362;28;20011;-69
2022/05/05 10:18:33;;;;;;;;;;;13.60;99.90;;;;;;5055425;28;19925;-69
2022/05/05 10:21:00;;;;;;;;;;;13.60;99.90;;;;;;5053167;28;19935;-68
2022/05/05 10:23:28;;;;;;;;;;;13.70;99.90;;;;;;5055535;28;19982;-69
2022/05/05 10:25:55;;;;;;;;;;;13.70;99.90;;;;;;5055367;28;20023;-68
2022/05/05 10:28:36;;;;;;;;;;;13.80;99.90;;;;;;5055204;28;20041;-70
2022/05/05 10:31:01;;;;;;;;;;;13.80;99.90;;;;;;5055048;28;19967;-68
2022/05/05 10:33:46;;;;;;;;;;;13.90;99.90;;;;;;5054693;28;19925;-70
2022/05/05 10:36:21;;;;;;;;;;;14.00;99.90;;;;;;5055026;28;19968;-67
2022/05/05 10:38:49;;;;;;;;;;;14.10;99.90;;;;;;5054034;28;19931;-69
2022/05/05 10:41:31;;;;;;;;;;;14.10;99.90;;;;;;5054134;28;19932;-68
2022/05/05 10:44:15;;;;;;;;;;;14.20;99.90;;;;;;5055050;28;19932;-68
2022/05/05 10:47:03;;;;;;;;;;;14.30;99.90;;;;;;5054755;28;20319;-68
2022/05/05 10:49:31;;;;;;;;;;;14.30;99.90;;;;;;5054643;28;19932;-71
2022/05/05 10:52:09;;;;;;;;;;;14.30;99.90;;;;;;5053408;28;19924;-68
2022/05/05 10:54:38;;;;;;;;;;;14.40;99.90;;;;;;5055060;28;20007;-71
2022/05/05 10:57:22;;;;;;;;;;;14.40;99.90;;;;;;5054813;28;19939;-69
2022/05/05 11:00:07;;;;;;;;;;;14.40;99.90;;;;;;5054873;28;19931;-68
2022/05/05 11:02:35;;;;;;;;;;;14.40;99.90;;;;;;5054681;28;19925;-68
2022/05/05 11:05:20;;;;;;;;;;;14.50;99.90;;;;;;5054450;28;19932;-69
2022/05/05 11:07:49;;;;;;;;;;;14.50;99.90;;;;;;5054588;28;20438;-69
2022/05/05 11:10:41;;;;;;;;;;;14.60;99.90;;;;;;5054590;28;19924;-68
2022/05/05 11:13:07;;;;;;;;;;;14.70;99.90;;;;;;5051791;28;20033;-69
2022/05/05 11:23:59;;;;;;;;;;;14.90;99.90;;;;;;5054350;28;20371;-69
2022/05/05 11:26:25;;;;;;;;;;;15.00;99.90;;;;;;5054247;28;19929;-68
2022/05/05 11:28:51;;;;;;;;;;;15.00;99.90;;;;;;5054233;28;20277;-69
2022/05/05 11:31:23;;;;;;;;;;;15.00;99.90;;;;;;5053240;28;19965;-68
2022/05/05 11:33:50;;;;;;;;;;;15.10;99.90;;;;;;5054057;28;20015;-67
2022/05/05 11:36:15;;;;;;;;;;;15.00;99.90;;;;;;5053948;28;20327;-69
2022/05/05 11:38:41;;;;;;;;;;;15.00;99.90;;;;;;5053130;28;19925;-71
2022/05/05 11:41:07;;;;;;;;;;;15.10;99.90;;;;;;5054141;28;20414;-70
2022/05/05 11:46:18;;;;;;;;;;;15.10;99.90;;;;;;5052833;28;19974;-69
2022/05/05 11:48:51;;;;;;;;;;;15.10;99.90;;;;;;5053841;28;19924;-68
2022/05/05 11:51:20;;;;;;;;;;;15.00;99.90;;;;;;5053582;28;20376;-71
2022/05/05 11:53:46;;;;;;;;;;;15.10;99.90;;;;;;5053835;28;19932;-71
2022/05/05 11:56:13;;;;;;;;;;;15.20;99.90;;;;;;5053728;28;20288;-72
2022/05/05 12:01:42;;;;;;;;;;;15.40;99.90;;;;;;5053632;28;19932;-73
2022/05/05 12:04:12;;;;;;;;;;;15.40;99.90;;;;;;5052513;28;19964;-72
2022/05/05 12:06:39;;;;;;;;;;;15.50;99.90;;;;;;5053471;28;19991;-69
2022/05/05 12:09:05;;;;;;;;;;;15.50;99.90;;;;;;5052521;28;19925;-69
2022/05/05 12:11:31;;;;;;;;;;;15.60;99.90;;;;;;5053408;28;20342;-69
2022/05/05 12:14:00;;;;;;;;;;;15.60;99.90;;;;;;5052537;28;19977;-71
2022/05/05 12:16:34;;;;;;;;;;;15.70;99.90;;;;;;5053238;28;20353;-69
2022/05/05 12:19:00;;;;;;;;;;;15.70;99.90;;;;;;5052584;28;20350;-68
2022/05/05 12:21:26;;;;;;;;;;;15.80;99.90;;;;;;5052158;28;20312;-69
2022/05/05 12:24:01;;;;;;;;;;;15.80;99.90;;;;;;5053271;28;19932;-72
2022/05/05 12:26:28;;;;;;;;;;;15.80;99.90;;;;;;5053187;28;19929;-68
2022/05/05 12:28:54;;;;;;;;;;;15.90;99.90;;;;;;5052304;28;19925;-71
2022/05/05 12:31:21;;;;;;;;;;;15.90;99.90;;;;;;5052212;28;20375;-68
2022/05/05 12:33:47;;;;;;;;;;;16.00;99.90;;;;;;5052440;28;19995;-70
2022/05/05 12:36:13;;;;;;;;;;;16.10;99.90;;;;;;5052094;28;19925;-69
2022/05/05 12:38:39;;;;;;;;;;;16.10;99.90;;;;;;5053277;28;19972;-68
2022/05/05 12:41:05;;;;;;;;;;;16.10;99.90;;;;;;5052191;28;20423;-68
2022/05/05 12:43:32;;;;;;;;;;;16.20;99.90;;;;;;5053582;28;20012;-70
2022/05/05 12:46:00;;;;;;;;;;;16.20;99.90;;;;;;5056968;28;19964;-69
2022/05/05 12:48:27;;;;;;;;;;;16.20;99.90;;;;;;5057373;28;19924;-71
2022/05/05 12:51:14;;;;;;;;;;;16.20;99.90;;;;;;5057091;28;19925;-69
2022/05/05 13:01:52;;;;;;;;;;;16.30;99.90;;;;;;5057003;28;19925;-70
2022/05/05 13:04:19;;;;;;;;;;;16.40;99.90;;;;;;5056910;28;19976;-68
2022/05/05 13:06:45;;;;;;;;;;;16.50;99.90;;;;;;5056610;28;19928;-69
2022/05/05 13:09:11;;;;;;;;;;;16.50;99.90;;;;;;5056701;28;19936;-68
2022/05/05 13:11:38;;;;;;;;;;;16.40;99.90;;;;;;5056492;28;20384;-72
2022/05/05 13:14:03;;;;;;;;;;;16.40;99.90;;;;;;5055890;28;19964;-69
2022/05/05 13:16:30;;;;;;;;;;;16.50;99.90;;;;;;5056698;28;20026;-69
2022/05/05 13:18:57;;;;;;;;;;;16.30;99.90;;;;;;5053388;28;19929;-70
2022/05/05 13:21:22;;;;;;;;;;;16.60;99.90;;;;;;5053035;28;20008;-70
2022/05/05 13:23:48;;;;;;;;;;;16.60;99.90;;;;;;5056507;28;20033;-71
2022/05/05 13:26:14;;;;;;;;;;;16.70;99.90;;;;;;5055454;28;19924;-69
2022/05/05 13:28:39;;;;;;;;;;;16.80;99.90;;;;;;5056413;28;20391;-68
2022/05/05 13:31:05;;;;;;;;;;;16.80;99.90;;;;;;5055529;28;19931;-68
2022/05/05 13:33:31;;;;;;;;;;;16.80;99.90;;;;;;5056401;28;19975;-69
2022/05/05 13:35:56;;;;;;;;;;;16.90;99.90;;;;;;5055339;28;20011;-69
2022/05/05 13:38:23;;;;;;;;;;;16.90;99.90;;;;;;5055990;28;19932;-70
2022/05/05 13:40:49;;;;;;;;;;;16.90;99.90;;;;;;5056334;28;19925;-70
2022/05/05 13:43:15;;;;;;;;;;;17.00;99.90;;;;;;5056162;28;19932;-71
2022/05/05 13:45:40;;;;;;;;;;;16.80;99.90;;;;;;5055309;28;19925;-71
2022/05/05 13:48:06;;;;;;;;;;;17.10;99.90;;;;;;5054658;28;19932;-69
2022/05/05 13:50:32;;;;;;;;;;;17.10;99.90;;;;;;5056073;28;19932;-70
2022/05/05 13:52:57;;;;;;;;;;;17.20;99.90;;;;;;5055741;28;20291;-69
2022/05/05 13:55:23;;;;;;;;;;;17.20;99.90;;;;;;5053847;28;19932;-71
2022/05/05 13:57:48;;;;;;;;;;;17.20;99.90;;;;;;5055974;28;19928;-72
2022/05/05 14:00:14;;;;;;;;;;;17.20;99.90;;;;;;5056055;28;19929;-71
2022/05/05 14:02:40;;;;;;;;;;;17.20;99.60;;;;;;5055720;28;19925;-69
2022/05/05 14:05:06;;;;;;;;;;;17.20;99.90;;;;;;5055846;28;19925;-69
2022/05/05 14:13:01;;;;;;;;;;;17.20;99.90;;;;;;5054174;28;20303;-69
2022/05/05 14:15:28;;;;;;;;;;;17.20;99.90;;;;;;5049283;28;19926;-71
2022/05/05 14:17:54;;;;;;;;;;;17.20;99.90;;;;;;5037337;28;19929;-70
2022/05/05 14:20:21;;;;;;;;;;;17.30;99.90;;;;;;5035637;28;19933;-69
2022/05/05 14:22:47;;;;;;;;;;;17.30;99.90;;;;;;5046113;28;19924;-69
2022/05/05 14:25:12;;;;;;;;;;;17.40;99.90;;;;;;5055666;28;19931;-70
2022/05/05 14:27:38;;;;;;;;;;;17.40;99.90;;;;;;5054199;28;19929;-70
2022/05/05 14:30:04;;;;;;;;;;;17.40;99.90;;;;;;5055486;28;20295;-70
2022/05/05 14:32:30;;;;;;;;;;;17.40;99.90;;;;;;5055337;28;19925;-69
2022/05/05 14:34:56;;;;;;;;;;;17.40;99.90;;;;;;5055362;28;19925;-70
2022/05/05 14:37:21;;;;;;;;;;;17.40;99.90;;;;;;5055125;28;19925;-69
2022/05/05 14:39:47;;;;;;;;;;;17.40;99.90;;;;;;5055190;28;20282;-72
2022/05/05 14:42:12;;;;;;;;;;;17.40;99.90;;;;;;5055375;28;19978;-68
2022/05/05 14:44:38;;;;;;;;;;;17.40;99.90;;;;;;5055297;28;20307;-69
2022/05/05 14:47:04;;;;;;;;;;;17.40;99.90;;;;;;5055117;28;20273;-69
2022/05/05 14:49:30;;;;;;;;;;;17.40;99.90;;;;;;5055089;28;19970;-71
2022/05/05 14:51:56;;;;;;;;;;;17.40;99.90;;;;;;5054717;28;20007;-69
2022/05/05 14:54:21;;;;;;;;;;;17.40;99.90;;;;;;5054184;28;19925;-71
2022/05/05 14:56:47;;;;;;;;;;;17.40;99.90;;;;;;5054882;28;19925;-69
2022/05/05 14:59:12;;;;;;;;;;;17.40;99.90;;;;;;5054973;28;19931;-69
2022/05/05 15:01:38;;;;;;;;;;;17.40;99.90;;;;;;5053931;28;19987;-68
2022/05/05 15:04:04;;;;;;;;;;;17.40;99.90;;;;;;5054770;28;19980;-71
2022/05/05 15:06:30;;;;;;;;;;;17.50;99.90;;;;;;5054177;28;19924;-69
2022/05/05 15:08:56;;;;;;;;;;;17.50;99.90;;;;;;5054640;28;20015;-69
2022/05/05 15:11:22;;;;;;;;;;;17.50;99.80;;;;;;5053874;28;19925;-72
2022/05/05 15:13:49;;;;;;;;;;;17.50;99.90;;;;;;5036242;28;19932;-70
2022/05/05 15:16:15;;;;;;;;;;;17.60;99.90;;;;;;5054585;28;19925;-71
2022/05/05 15:18:41;;;;;;;;;;;17.60;99.90;;;;;;5054606;28;20300;-70
2022/05/05 15:21:06;;;;;;;;;;;17.60;99.90;;;;;;5054477;28;20359;-69
2022/05/05 15:23:32;;;;;;;;;;;17.60;99.90;;;;;;5054210;28;19925;-69
2022/05/05 15:25:59;;;;;;;;;;;17.50;99.90;;;;;;5054614;28;20011;-72